UATE

Actau Airport (formerly Shevchenko-Central)

Airport
ICAO code
UATE
IATA Code
SCO
Summary
ICAO Region
APAC
ICAO Territory
Location

Actau,

Serving
Actau
Elevation
73 ft
Coordinates
43° 51' 29" N , 51° 5' 32" E
KCC
Airport BS
Bird Strike
Airport WX
Fog
Metar
UATE 090500Z 10009MPS CAVOK 27/07 Q1018 NOSIG RMK QFE761/1015

International airport serving Actau, a Caspian Sea port city in Kazakhstan. The airport is located approximately 20km north of the city.

Runways

Designator Length Width Surface Rops
12/30 2652 45 ASP Yes/Yes
12L/30R 2935 46 GRE No/No

Airport map

Aerial View

SKYbrary Partners:

Safety knowledge contributed by: